createdAt,value
2023-04-28T00:01:46.613Z,6.70
2023-04-28T00:04:14.482Z,6.50
2023-04-28T00:06:41.949Z,6.60
2023-04-28T00:09:12.077Z,6.60
2023-04-28T00:11:39.397Z,6.80
2023-04-28T00:14:06.550Z,6.70
2023-04-28T00:16:33.572Z,6.60
2023-04-28T00:19:01.172Z,6.70
2023-04-28T00:21:28.996Z,6.80
2023-04-28T00:23:56.335Z,6.60
2023-04-28T00:26:23.575Z,6.40
2023-04-28T00:28:51.141Z,6.80
2023-04-28T00:31:18.509Z,6.60
2023-04-28T00:33:45.704Z,6.00
2023-04-28T00:36:12.955Z,5.90
2023-04-28T00:38:40.617Z,6.50
2023-04-28T00:41:10.238Z,6.30
2023-04-28T00:43:50.273Z,6.10
2023-04-28T00:46:22.790Z,6.30
2023-04-28T00:49:06.550Z,6.10
2023-04-28T00:51:34.160Z,5.80
2023-04-28T00:54:01.265Z,6.20
2023-04-28T00:56:31.523Z,5.90
2023-04-28T00:58:58.904Z,5.90
2023-04-28T01:01:26.042Z,5.90
2023-04-28T01:03:53.467Z,5.80
2023-04-28T01:06:22.224Z,6.10
2023-04-28T01:08:51.327Z,6.00
2023-04-28T01:11:18.568Z,6.30
2023-04-28T01:14:12.069Z,6.00
2023-04-28T01:16:41.208Z,5.80
2023-04-28T01:19:08.855Z,6.30
2023-04-28T01:21:37.921Z,6.30
2023-04-28T01:24:25.245Z,6.10
2023-04-28T01:26:52.700Z,5.40
2023-04-28T01:29:19.883Z,5.40
2023-04-28T01:31:47.096Z,6.00
2023-04-28T01:34:14.555Z,5.50
2023-04-28T01:36:42.550Z,5.00
2023-04-28T01:39:10.498Z,5.70
2023-04-28T01:41:37.759Z,5.70
2023-04-28T01:44:06.392Z,6.80
2023-04-28T01:46:34.090Z,6.20
2023-04-28T01:49:01.598Z,6.00
2023-04-28T01:51:28.763Z,5.70
2023-04-28T01:53:56.262Z,6.30
2023-04-28T01:56:24.027Z,6.20
2023-04-28T01:58:51.796Z,6.30
2023-04-28T02:01:18.897Z,6.30
2023-04-28T02:03:46.332Z,6.70
2023-04-28T02:06:14.213Z,7.20
2023-04-28T02:08:41.448Z,7.50
2023-04-28T02:11:08.558Z,7.10
2023-04-28T02:13:37.042Z,7.60
2023-04-28T02:16:04.329Z,8.00
2023-04-28T02:18:31.879Z,8.00
2023-04-28T02:21:09.292Z,8.50
2023-04-28T02:23:36.294Z,7.50
2023-04-28T02:26:05.691Z,7.40
2023-04-28T02:28:33.273Z,7.80
2023-04-28T02:31:10.387Z,7.60
2023-04-28T02:33:38.222Z,7.70
2023-04-28T02:36:06.275Z,7.40
2023-04-28T02:38:33.466Z,7.80
2023-04-28T02:41:01.490Z,7.60
2023-04-28T02:43:28.955Z,7.90
2023-04-28T02:45:56.849Z,8.20
2023-04-28T02:48:25.094Z,7.60
2023-04-28T02:50:53.580Z,8.00
2023-04-28T02:53:21.057Z,7.20
2023-04-28T02:55:49.117Z,7.90
2023-04-28T02:58:18.361Z,7.70
2023-04-28T03:00:45.987Z,7.40
2023-04-28T03:03:13.359Z,7.00
2023-04-28T03:05:40.450Z,7.60
2023-04-28T03:08:07.615Z,7.10
2023-04-28T03:10:34.698Z,7.70
2023-04-28T03:13:01.943Z,6.60
2023-04-28T03:15:29.965Z,7.10
2023-04-28T03:17:57.869Z,7.40
2023-04-28T03:20:24.915Z,8.10
2023-04-28T03:22:51.869Z,8.50
2023-04-28T03:25:18.908Z,7.50
2023-04-28T03:27:48.431Z,7.40
2023-04-28T03:30:15.615Z,7.40
2023-04-28T03:32:42.637Z,7.20
2023-04-28T03:35:09.971Z,7.60
2023-04-28T03:37:37.069Z,7.90
2023-04-28T03:40:04.313Z,7.80
2023-04-28T03:42:38.893Z,8.20
2023-04-28T03:45:09.180Z,8.50
2023-04-28T03:47:36.327Z,7.90
2023-04-28T03:50:03.957Z,7.80
2023-04-28T03:52:31.212Z,8.50
2023-04-28T03:54:58.210Z,8.40
2023-04-28T03:57:25.433Z,8.90
2023-04-28T03:59:52.380Z,8.30
2023-04-28T04:02:19.446Z,8.50
2023-04-28T04:04:46.613Z,8.60
2023-04-28T04:07:13.713Z,8.30
2023-04-28T04:09:40.889Z,8.10
2023-04-28T04:12:08.212Z,8.90
2023-04-28T04:14:35.172Z,8.80
2023-04-28T04:17:02.347Z,8.90
2023-04-28T04:19:29.632Z,9.30
2023-04-28T04:21:56.781Z,9.50
2023-04-28T04:24:23.810Z,8.90
2023-04-28T04:26:50.899Z,9.70
2023-04-28T04:29:33.586Z,9.20
2023-04-28T04:32:02.944Z,8.90
2023-04-28T04:34:30.113Z,9.50
2023-04-28T04:36:57.206Z,9.10
2023-04-28T04:39:24.341Z,9.70
2023-04-28T04:41:51.300Z,9.80
2023-04-28T04:44:34.872Z,9.00
2023-04-28T04:47:02.622Z,9.80
2023-04-28T04:49:30.495Z,10.90
2023-04-28T04:51:57.514Z,10.30
2023-04-28T04:54:25.050Z,9.80
2023-04-28T04:56:52.581Z,10.30
2023-04-28T04:59:28.482Z,9.70
2023-04-28T05:02:01.759Z,10.10
2023-04-28T05:04:29.597Z,10.00
2023-04-28T05:06:56.709Z,10.50
2023-04-28T05:09:23.982Z,10.50
2023-04-28T05:11:51.094Z,9.90
2023-04-28T05:14:18.426Z,10.50
2023-04-28T05:16:45.603Z,10.90
2023-04-28T05:19:16.843Z,11.60
2023-04-28T05:21:43.791Z,11.80
2023-04-28T05:24:10.730Z,11.40
2023-04-28T05:26:37.745Z,12.00
2023-04-28T05:29:08.052Z,11.70
2023-04-28T05:31:35.020Z,11.00
2023-04-28T05:34:02.669Z,11.40
2023-04-28T05:36:29.846Z,10.10
2023-04-28T05:38:56.805Z,11.30
2023-04-28T05:41:24.075Z,11.50
2023-04-28T05:43:51.573Z,11.50
2023-04-28T05:46:30.175Z,11.10
2023-04-28T05:48:58.850Z,10.20
2023-04-28T05:51:27.350Z,10.40
2023-04-28T05:53:54.393Z,10.10
2023-04-28T05:56:21.689Z,11.50
2023-04-28T05:58:50.598Z,10.90
2023-04-28T06:01:17.984Z,9.40
2023-04-28T06:03:45.608Z,9.70
2023-04-28T06:06:13.006Z,11.30
2023-04-28T06:08:40.221Z,9.70
2023-04-28T06:11:07.230Z,10.60
2023-04-28T06:13:34.464Z,10.30
2023-04-28T06:16:03.453Z,9.90
2023-04-28T06:18:33.014Z,10.40
2023-04-28T06:21:01.488Z,10.00
2023-04-28T06:23:28.699Z,9.80
2023-04-28T06:25:55.957Z,9.40
2023-04-28T06:28:24.076Z,9.70
2023-04-28T06:30:53.445Z,9.70
2023-04-28T06:33:20.619Z,8.60
2023-04-28T06:37:36.966Z,9.10
2023-04-28T06:40:05.151Z,9.20
2023-04-28T06:42:32.899Z,9.10
2023-04-28T06:45:09.067Z,9.60
2023-04-28T06:47:37.853Z,9.50
2023-04-28T06:50:09.948Z,8.30
2023-04-28T06:52:39.717Z,8.90
2023-04-28T06:55:09.507Z,8.60
2023-04-28T06:57:38.537Z,8.00
2023-04-28T07:00:06.600Z,7.40
2023-04-28T07:02:34.408Z,7.50
2023-04-28T07:05:01.712Z,7.40
2023-04-28T07:07:28.944Z,7.20
2023-04-28T07:09:56.400Z,7.30
2023-04-28T07:12:23.628Z,7.50
2023-04-28T07:14:51.241Z,7.40
2023-04-28T07:17:20.773Z,7.40
2023-04-28T07:19:50.172Z,7.10
2023-04-28T07:22:18.119Z,6.80
2023-04-28T07:24:45.367Z,6.80
2023-04-28T07:27:13.143Z,6.70
2023-04-28T07:29:40.406Z,7.20
2023-04-28T07:32:11.021Z,6.70
2023-04-28T07:34:38.258Z,6.10
2023-04-28T07:37:07.871Z,5.80
2023-04-28T07:39:35.506Z,6.90
2023-04-28T07:42:03.465Z,6.70
2023-04-28T07:44:31.299Z,5.70
2023-04-28T07:46:59.749Z,5.10
2023-04-28T07:49:30.380Z,5.10
2023-04-28T07:51:59.271Z,5.40
2023-04-28T07:54:26.754Z,4.70
2023-04-28T07:56:53.907Z,4.20
2023-04-28T07:59:21.343Z,4.10
2023-04-28T08:01:48.489Z,4.10
2023-04-28T08:04:16.170Z,3.80
2023-04-28T08:06:43.815Z,3.70
2023-04-28T08:09:11.228Z,3.80
2023-04-28T08:11:38.414Z,3.70
2023-04-28T08:14:05.818Z,3.50
2023-04-28T08:16:34.689Z,4.10
2023-04-28T08:19:03.433Z,3.90
2023-04-28T08:21:30.827Z,4.00
2023-04-28T08:23:58.323Z,3.70
2023-04-28T08:26:26.184Z,3.70
2023-04-28T08:28:53.799Z,3.60
2023-04-28T08:31:20.988Z,3.80
2023-04-28T08:33:51.361Z,3.50
2023-04-28T08:36:18.763Z,3.80
2023-04-28T08:38:46.379Z,3.30
2023-04-28T08:41:15.530Z,3.30
2023-04-28T08:43:43.575Z,3.90
2023-04-28T08:46:11.336Z,3.40
2023-04-28T08:48:45.916Z,3.50
2023-04-28T08:51:18.657Z,3.70
2023-04-28T08:56:22.354Z,3.10
2023-04-28T08:58:49.479Z,3.20
2023-04-28T09:01:16.876Z,3.00
2023-04-28T09:03:44.367Z,2.90
2023-04-28T09:06:12.185Z,3.90
2023-04-28T09:08:39.557Z,3.70
2023-04-28T09:11:08.502Z,3.00
2023-04-28T09:13:36.064Z,3.30
2023-04-28T09:16:03.997Z,3.30
2023-04-28T09:18:33.267Z,3.50
2023-04-28T09:21:07.919Z,3.20
2023-04-28T09:23:35.758Z,3.60
2023-04-28T09:26:07.949Z,3.50
2023-04-28T09:28:36.348Z,3.10
2023-04-28T09:31:04.340Z,3.20
2023-04-28T09:33:31.998Z,3.70
2023-04-28T09:35:59.053Z,3.00
2023-04-28T09:38:26.306Z,2.90
2023-04-28T09:40:57.605Z,3.20
2023-04-28T09:43:31.821Z,3.00
2023-04-28T09:46:03.338Z,3.00
2023-04-28T09:48:34.979Z,2.50
2023-04-28T09:53:33.917Z,2.70
2023-04-28T09:56:02.273Z,2.50
2023-04-28T09:58:31.048Z,2.50
2023-04-28T10:00:59.410Z,2.50
2023-04-28T10:03:29.811Z,2.60
2023-04-28T10:05:58.502Z,2.30
2023-04-28T10:08:26.095Z,2.40
2023-04-28T10:10:56.992Z,2.70
2023-04-28T10:13:24.345Z,2.70
2023-04-28T10:15:51.635Z,2.70
2023-04-28T10:18:18.878Z,2.50
2023-04-28T10:20:47.932Z,2.80
2023-04-28T10:23:40.282Z,2.80
2023-04-28T10:26:11.712Z,3.10
2023-04-28T10:28:45.508Z,2.50
2023-04-28T10:31:13.549Z,2.70
2023-04-28T10:33:41.281Z,2.70
2023-04-28T10:36:08.471Z,3.00
2023-04-28T10:38:35.986Z,3.20
2023-04-28T10:41:03.487Z,3.10
2023-04-28T10:43:33.341Z,3.00
2023-04-28T10:46:06.133Z,2.80
2023-04-28T10:48:33.410Z,2.80
2023-04-28T10:51:03.547Z,3.00
2023-04-28T10:53:42.923Z,2.80
2023-04-28T10:56:19.847Z,3.00
2023-04-28T10:58:50.970Z,2.50
2023-04-28T11:01:21.394Z,2.90
2023-04-28T11:04:01.140Z,2.50
2023-04-28T11:06:34.898Z,2.70
2023-04-28T11:09:02.724Z,2.60
2023-04-28T11:11:30.618Z,2.40
2023-04-28T11:14:19.535Z,2.60
2023-04-28T11:16:53.995Z,2.50
2023-04-28T11:19:22.333Z,2.70
2023-04-28T11:21:49.964Z,2.50
2023-04-28T11:24:17.388Z,3.00
2023-04-28T11:26:44.501Z,2.70
2023-04-28T11:29:12.008Z,2.80
2023-04-28T11:31:38.988Z,2.50
2023-04-28T11:34:12.342Z,2.70
2023-04-28T11:36:39.580Z,2.80
2023-04-28T11:39:10.643Z,2.80
2023-04-28T11:41:42.393Z,3.60
2023-04-28T11:44:12.379Z,3.20
2023-04-28T11:47:01.278Z,2.90
2023-04-28T11:49:41.591Z,3.80
2023-04-28T11:52:08.995Z,3.40
2023-04-28T11:54:36.146Z,3.70
2023-04-28T11:57:05.161Z,3.90
2023-04-28T11:59:34.131Z,3.40
2023-04-28T12:02:02.946Z,4.30
2023-04-28T12:04:35.934Z,4.20
2023-04-28T12:07:04.032Z,4.30
2023-04-28T12:09:31.538Z,3.60
2023-04-28T12:12:03.500Z,4.20
2023-04-28T12:14:32.962Z,4.30
2023-04-28T12:16:59.902Z,4.80
2023-04-28T12:19:26.840Z,4.40
2023-04-28T12:22:01.112Z,4.10
2023-04-28T12:24:29.716Z,4.00
2023-04-28T12:27:14.738Z,4.20
2023-04-28T12:29:42.562Z,3.90
2023-04-28T12:32:10.614Z,4.40
2023-04-28T12:34:39.849Z,4.10
2023-04-28T12:37:07.050Z,4.50
2023-04-28T12:39:37.061Z,3.60
2023-04-28T12:42:06.461Z,4.20
2023-04-28T12:44:38.042Z,3.80
2023-04-28T12:47:09.557Z,4.00
2023-04-28T12:49:36.906Z,4.50
2023-04-28T12:52:04.666Z,3.60
2023-04-28T12:54:32.066Z,3.50
2023-04-28T12:56:59.051Z,3.60
2023-04-28T12:59:26.275Z,4.10
2023-04-28T13:01:53.385Z,3.20
2023-04-28T13:04:20.816Z,3.60
2023-04-28T13:06:48.271Z,2.80
2023-04-28T13:09:15.552Z,3.10
2023-04-28T13:11:43.162Z,3.20
2023-04-28T13:14:10.198Z,2.60
2023-04-28T13:16:37.361Z,3.10
2023-04-28T13:19:04.691Z,3.00
2023-04-28T13:21:31.992Z,3.30
2023-04-28T13:23:58.946Z,3.40
2023-04-28T13:26:26.934Z,3.40
2023-04-28T13:28:53.942Z,3.40
2023-04-28T13:31:21.070Z,3.20
2023-04-28T13:33:48.208Z,3.10
2023-04-28T13:36:15.107Z,3.50
2023-04-28T13:38:42.140Z,3.40
2023-04-28T13:41:09.131Z,3.40
2023-04-28T13:43:36.295Z,4.00
2023-04-28T13:46:08.479Z,4.50
2023-04-28T13:48:36.397Z,3.60
2023-04-28T13:51:04.325Z,3.60
2023-04-28T13:53:31.892Z,3.60
2023-04-28T13:55:59.947Z,3.50
2023-04-28T13:58:27.509Z,3.80
2023-04-28T14:00:56.378Z,3.50
2023-04-28T14:03:24.564Z,3.20
2023-04-28T14:05:53.974Z,3.30
2023-04-28T14:08:21.699Z,3.40
2023-04-28T14:10:49.628Z,3.60
2023-04-28T14:13:16.917Z,3.60
2023-04-28T14:15:57.970Z,3.30
2023-04-28T14:18:26.491Z,4.00
2023-04-28T14:20:54.672Z,4.00
2023-04-28T14:23:22.817Z,3.80
2023-04-28T14:25:50.501Z,3.70
2023-04-28T14:28:17.881Z,4.60
2023-04-28T14:30:45.046Z,4.00
2023-04-28T14:33:12.324Z,3.40
2023-04-28T14:35:39.969Z,4.10
2023-04-28T14:38:07.137Z,3.50
2023-04-28T14:40:34.240Z,4.10
2023-04-28T14:43:01.294Z,4.00
2023-04-28T14:45:28.840Z,4.10
2023-04-28T14:47:56.112Z,4.20
2023-04-28T14:50:23.194Z,3.40
2023-04-28T14:52:50.315Z,3.30
2023-04-28T14:55:17.238Z,3.60
2023-04-28T14:57:44.394Z,3.50
2023-04-28T15:00:11.929Z,3.60
2023-04-28T15:02:39.370Z,3.30
2023-04-28T15:05:08.172Z,3.30
2023-04-28T15:07:35.374Z,2.90
2023-04-28T15:10:02.686Z,3.50
2023-04-28T15:12:30.761Z,3.20
2023-04-28T15:14:58.460Z,3.30
2023-04-28T15:17:27.292Z,3.10
2023-04-28T15:19:54.542Z,2.80
2023-04-28T15:22:22.237Z,3.60
2023-04-28T15:24:49.804Z,3.10
2023-04-28T15:27:17.120Z,2.90
2023-04-28T15:29:45.458Z,3.30
2023-04-28T15:32:14.140Z,3.10
2023-04-28T15:34:41.958Z,2.80
2023-04-28T15:37:37.679Z,3.00
2023-04-28T15:40:09.655Z,2.70
2023-04-28T15:42:38.017Z,2.90
2023-04-28T15:45:06.034Z,3.50
2023-04-28T15:47:36.244Z,2.40
2023-04-28T15:50:14.466Z,3.20
2023-04-28T15:52:46.465Z,2.90
2023-04-28T15:55:18.645Z,2.80
2023-04-28T15:57:46.433Z,3.10
2023-04-28T16:00:15.030Z,4.50
2023-04-28T16:02:43.963Z,3.10
2023-04-28T16:05:12.270Z,2.80
2023-04-28T16:07:44.634Z,3.30
2023-04-28T16:10:14.904Z,2.80
2023-04-28T16:12:43.125Z,2.90
2023-04-28T16:15:11.339Z,2.90
2023-04-28T16:17:38.698Z,2.60
2023-04-28T16:20:07.497Z,2.40
2023-04-28T16:22:36.256Z,2.50
2023-04-28T16:25:05.186Z,2.40
2023-04-28T16:27:32.878Z,2.50
2023-04-28T16:30:00.706Z,2.50
2023-04-28T16:32:27.869Z,2.50
2023-04-28T16:34:59.019Z,2.60
2023-04-28T16:37:26.758Z,2.60
2023-04-28T16:39:54.282Z,2.60
2023-04-28T16:42:23.258Z,2.50
2023-04-28T16:44:52.626Z,2.70
2023-04-28T16:47:20.697Z,2.40
2023-04-28T16:49:48.846Z,2.40
2023-04-28T16:52:16.951Z,2.30
2023-04-28T16:54:46.923Z,2.30
2023-04-28T16:57:14.002Z,2.40
2023-04-28T16:59:41.970Z,2.30
2023-04-28T17:02:09.083Z,2.30
2023-04-28T17:04:37.844Z,2.00
2023-04-28T17:07:05.565Z,2.60
2023-04-28T17:09:34.075Z,2.10
2023-04-28T17:12:01.275Z,2.20
2023-04-28T17:14:29.155Z,2.30
2023-04-28T17:16:56.794Z,2.10
2023-04-28T17:19:23.886Z,2.10
2023-04-28T17:21:53.752Z,1.90
2023-04-28T17:24:20.805Z,2.30
2023-04-28T17:26:47.960Z,2.50
2023-04-28T17:29:16.439Z,1.40
2023-04-28T17:31:43.551Z,1.80
2023-04-28T17:34:10.606Z,1.70
2023-04-28T17:36:37.802Z,2.00
2023-04-28T17:39:04.957Z,1.60
2023-04-28T17:41:32.269Z,1.80
2023-04-28T17:43:59.372Z,1.60
2023-04-28T17:46:27.696Z,1.90
2023-04-28T17:48:55.052Z,1.80
2023-04-28T17:51:22.729Z,1.50
2023-04-28T17:53:49.806Z,1.90
2023-04-28T17:56:16.911Z,1.80
2023-04-28T17:58:44.276Z,2.10
2023-04-28T18:01:11.746Z,2.30
2023-04-28T18:03:39.355Z,2.20
2023-04-28T18:06:08.065Z,2.00
2023-04-28T18:08:36.961Z,1.90
2023-04-28T18:11:05.217Z,2.00
2023-04-28T18:13:34.137Z,2.10
2023-04-28T18:16:01.409Z,2.00
2023-04-28T18:18:30.643Z,2.20
2023-04-28T18:20:59.175Z,2.10
2023-04-28T18:23:26.778Z,2.00
2023-04-28T18:25:53.798Z,1.90
2023-04-28T18:28:21.236Z,2.00
2023-04-28T18:30:48.270Z,2.10
2023-04-28T18:33:19.456Z,2.30
2023-04-28T18:35:48.442Z,3.10
2023-04-28T18:38:15.521Z,2.60
2023-04-28T18:40:43.056Z,2.90
2023-04-28T18:43:13.371Z,2.90
2023-04-28T18:45:41.682Z,3.00
2023-04-28T18:48:10.905Z,3.00
2023-04-28T18:50:38.647Z,2.70
2023-04-28T18:55:19.446Z,3.20
2023-04-28T18:57:48.230Z,2.80
2023-04-28T19:00:16.469Z,3.30
2023-04-28T19:02:44.754Z,3.00
2023-04-28T19:05:13.346Z,3.20
2023-04-28T19:07:41.717Z,3.10
2023-04-28T19:10:09.309Z,3.50
2023-04-28T19:12:36.634Z,3.40
2023-04-28T19:15:06.233Z,2.70
2023-04-28T19:17:35.426Z,3.50
2023-04-28T19:20:05.996Z,2.80
2023-04-28T19:22:36.560Z,2.90
2023-04-28T19:25:05.455Z,3.10
2023-04-28T19:27:34.116Z,2.70
2023-04-28T19:30:01.682Z,2.50
2023-04-28T19:32:29.236Z,2.80
2023-04-28T19:34:56.449Z,2.90
2023-04-28T19:37:23.752Z,3.00
2023-04-28T19:47:14.116Z,2.20
2023-04-28T19:49:42.455Z,2.70
2023-04-28T19:52:10.398Z,2.70
2023-04-28T19:54:38.853Z,2.40
2023-04-28T20:03:20.377Z,2.20
2023-04-28T20:05:47.708Z,2.80
2023-04-28T20:08:14.660Z,2.30
2023-04-28T20:10:43.308Z,3.10
2023-04-28T20:13:12.100Z,2.60
2023-04-28T20:15:39.523Z,2.80
2023-04-28T20:18:06.996Z,2.30
2023-04-28T20:20:34.812Z,2.50
2023-04-28T20:23:02.024Z,2.70
2023-04-28T20:25:29.720Z,2.20
2023-04-28T20:27:57.268Z,2.50
2023-04-28T20:30:24.465Z,2.00
2023-04-28T20:32:52.244Z,2.30
2023-04-28T20:35:20.695Z,2.60
2023-04-28T20:37:47.877Z,1.70
2023-04-28T20:40:15.485Z,2.00
2023-04-28T20:42:42.536Z,2.10
2023-04-28T20:45:12.658Z,2.10
2023-04-28T20:47:40.115Z,2.20
2023-04-28T20:50:12.804Z,2.00
2023-04-28T20:52:42.704Z,2.70
2023-04-28T20:55:10.899Z,2.00
2023-04-28T20:57:38.048Z,2.10
2023-04-28T21:00:07.101Z,2.30
2023-04-28T21:02:36.574Z,2.50
2023-04-28T21:05:03.771Z,2.10
2023-04-28T21:07:31.971Z,2.40
2023-04-28T21:09:59.052Z,2.10
2023-04-28T21:12:26.726Z,1.50
2023-04-28T21:14:54.633Z,1.70
2023-04-28T21:17:21.572Z,2.00
2023-04-28T21:19:48.946Z,1.30
2023-04-28T21:22:16.707Z,1.10
2023-04-28T21:24:44.160Z,1.10
2023-04-28T21:27:11.222Z,1.10
2023-04-28T21:29:38.423Z,1.00
2023-04-28T21:32:07.380Z,1.20
2023-04-28T21:34:34.600Z,1.50
2023-04-28T21:37:02.236Z,1.60
2023-04-28T21:39:29.336Z,1.90
2023-04-28T21:41:56.301Z,1.90
2023-04-28T21:44:23.410Z,1.70
2023-04-28T21:46:50.575Z,1.70
2023-04-28T21:49:18.195Z,1.90
2023-04-28T21:51:46.034Z,1.70
2023-04-28T21:54:14.515Z,1.60
2023-04-28T21:56:41.541Z,1.70
2023-04-28T21:59:09.298Z,1.60
2023-04-28T22:01:36.621Z,1.90
2023-04-28T22:04:04.275Z,2.00
2023-04-28T22:06:31.629Z,2.10
2023-04-28T22:08:58.620Z,2.00
2023-04-28T22:11:26.240Z,2.00
2023-04-28T22:13:53.275Z,2.00
2023-04-28T22:16:20.497Z,2.20
2023-04-28T22:18:47.611Z,2.20
2023-04-28T22:21:15.173Z,2.30
2023-04-28T22:23:42.183Z,2.20
2023-04-28T22:26:09.232Z,2.20
2023-04-28T22:28:36.720Z,1.60
2023-04-28T22:31:04.423Z,2.30
2023-04-28T22:33:32.521Z,2.20
2023-04-28T22:35:59.626Z,2.10
2023-04-28T22:38:26.983Z,2.30
2023-04-28T22:40:54.100Z,1.70
2023-04-28T22:43:21.514Z,2.20
2023-04-28T22:45:49.118Z,2.40
2023-04-28T22:48:16.273Z,2.20
2023-04-28T22:50:43.640Z,1.90
2023-04-28T22:53:10.651Z,1.40
2023-04-28T22:55:39.034Z,1.80
2023-04-28T22:58:06.022Z,1.40
2023-04-28T23:00:33.899Z,1.50
2023-04-28T23:03:01.148Z,1.20
2023-04-28T23:05:28.413Z,1.70
2023-04-28T23:07:55.628Z,1.40
2023-04-28T23:10:22.602Z,1.60
2023-04-28T23:12:49.746Z,1.50
2023-04-28T23:15:17.298Z,1.30
2023-04-28T23:17:44.408Z,1.60
2023-04-28T23:20:12.004Z,1.50
2023-04-28T23:22:39.639Z,1.40
2023-04-28T23:25:07.184Z,1.20
2023-04-28T23:27:34.235Z,1.10
2023-04-28T23:30:01.366Z,1.20
2023-04-28T23:32:28.619Z,1.20
2023-04-28T23:34:55.737Z,1.00
2023-04-28T23:37:22.822Z,1.10
2023-04-28T23:39:50.099Z,1.10
2023-04-28T23:42:17.555Z,1.10
2023-04-28T23:44:44.568Z,1.20
2023-04-28T23:47:12.244Z,1.30
2023-04-28T23:49:39.806Z,1.10
2023-04-28T23:52:07.726Z,1.10
2023-04-28T23:54:34.731Z,1.30
2023-04-28T23:57:01.688Z,1.40
2023-04-28T23:59:29.024Z,1.40
